sensor_id;sensor_type;location;lat;lon;timestamp;noise_LAeq;noise_LA_min;noise_LA_max;noise_LA01;noise_LA95
68279;Laerm;55108;51.790;10.960;2023-04-21T00:01:02;57.05;29.28;74.56;;
68279;Laerm;55108;51.790;10.960;2023-04-21T00:03:27;33.95;28.54;41.32;;
68279;Laerm;55108;51.790;10.960;2023-04-21T00:05:57;55.22;30.53;70.77;;
68279;Laerm;55108;51.790;10.960;2023-04-21T00:08:23;30.90;27.19;38.43;;
68279;Laerm;55108;51.790;10.960;2023-04-21T00:10:48;32.08;26.99;45.45;;
68279;Laerm;55108;51.790;10.960;2023-04-21T00:13:13;37.61;27.62;48.91;;
68279;Laerm;55108;51.790;10.960;2023-04-21T00:15:38;62.46;27.85;81.36;;
68279;Laerm;55108;51.790;10.960;2023-04-21T00:18:03;33.60;28.66;52.58;;
68279;Laerm;55108;51.790;10.960;2023-04-21T00:20:29;52.99;31.30;68.97;;
68279;Laerm;55108;51.790;10.960;2023-04-21T00:22:55;35.05;28.17;49.73;;
68279;Laerm;55108;51.790;10.960;2023-04-21T00:25:20;31.15;28.49;35.98;;
68279;Laerm;55108;51.790;10.960;2023-04-21T00:27:45;32.10;28.75;37.28;;
68279;Laerm;55108;51.790;10.960;2023-04-21T00:30:11;52.57;28.18;68.00;;
68279;Laerm;55108;51.790;10.960;2023-04-21T00:32:36;30.53;27.83;36.38;;
68279;Laerm;55108;51.790;10.960;2023-04-21T00:35:01;29.30;26.68;33.56;;
68279;Laerm;55108;51.790;10.960;2023-04-21T00:37:26;30.06;26.89;38.83;;
68279;Laerm;55108;51.790;10.960;2023-04-21T00:39:51;30.95;27.46;36.66;;
68279;Laerm;55108;51.790;10.960;2023-04-21T00:42:16;32.19;28.42;37.30;;
68279;Laerm;55108;51.790;10.960;2023-04-21T00:44:42;58.98;27.48;77.26;;
68279;Laerm;55108;51.790;10.960;2023-04-21T00:47:07;55.51;28.39;72.35;;
68279;Laerm;55108;51.790;10.960;2023-04-21T00:49:32;54.50;29.06;73.37;;
68279;Laerm;55108;51.790;10.960;2023-04-21T00:51:57;60.67;31.25;75.60;;
68279;Laerm;55108;51.790;10.960;2023-04-21T00:54:23;39.41;29.27;51.56;;
68279;Laerm;55108;51.790;10.960;2023-04-21T00:56:49;36.15;28.64;50.77;;
68279;Laerm;55108;51.790;10.960;2023-04-21T00:59:14;31.34;28.11;35.62;;
68279;Laerm;55108;51.790;10.960;2023-04-21T01:01:39;47.16;30.91;62.25;;
68279;Laerm;55108;51.790;10.960;2023-04-21T01:04:05;64.21;30.12;83.27;;
68279;Laerm;55108;51.790;10.960;2023-04-21T01:06:31;61.60;30.43;81.51;;
68279;Laerm;55108;51.790;10.960;2023-04-21T01:08:57;31.98;28.52;37.45;;
68279;Laerm;55108;51.790;10.960;2023-04-21T01:11:23;57.98;29.18;76.09;;
68279;Laerm;55108;51.790;10.960;2023-04-21T01:13:50;41.55;26.74;57.70;;
68279;Laerm;55108;51.790;10.960;2023-04-21T01:16:16;33.36;27.80;40.10;;
68279;Laerm;55108;51.790;10.960;2023-04-21T01:18:42;35.51;29.87;43.02;;
68279;Laerm;55108;51.790;10.960;2023-04-21T01:21:07;39.95;30.11;55.43;;
68279;Laerm;55108;51.790;10.960;2023-04-21T01:23:32;46.15;28.70;60.24;;
68279;Laerm;55108;51.790;10.960;2023-04-21T01:25:57;53.66;28.56;71.92;;
68279;Laerm;55108;51.790;10.960;2023-04-21T01:28:23;34.30;29.00;44.46;;
68279;Laerm;55108;51.790;10.960;2023-04-21T01:30:48;52.25;27.84;68.86;;
68279;Laerm;55108;51.790;10.960;2023-04-21T01:33:14;32.19;27.83;48.14;;
68279;Laerm;55108;51.790;10.960;2023-04-21T01:35:39;35.94;27.83;46.99;;
68279;Laerm;55108;51.790;10.960;2023-04-21T01:38:05;55.96;27.31;71.98;;
68279;Laerm;55108;51.790;10.960;2023-04-21T01:40:30;64.44;30.75;86.71;;
68279;Laerm;55108;51.790;10.960;2023-04-21T01:42:55;34.09;29.27;41.05;;
68279;Laerm;55108;51.790;10.960;2023-04-21T01:45:21;61.91;32.06;81.51;;
68279;Laerm;55108;51.790;10.960;2023-04-21T01:47:46;35.94;31.08;41.28;;
68279;Laerm;55108;51.790;10.960;2023-04-21T01:50:11;34.89;31.06;42.65;;
68279;Laerm;55108;51.790;10.960;2023-04-21T01:52:36;50.58;28.68;67.96;;
68279;Laerm;55108;51.790;10.960;2023-04-21T01:55:01;57.78;29.53;74.28;;
68279;Laerm;55108;51.790;10.960;2023-04-21T01:57:26;35.31;30.02;41.42;;
68279;Laerm;55108;51.790;10.960;2023-04-21T01:59:52;38.59;30.13;51.30;;
68279;Laerm;55108;51.790;10.960;2023-04-21T02:02:17;40.15;29.00;53.24;;
68279;Laerm;55108;51.790;10.960;2023-04-21T02:04:42;62.90;30.81;80.74;;
68279;Laerm;55108;51.790;10.960;2023-04-21T02:07:07;34.53;28.14;44.25;;
68279;Laerm;55108;51.790;10.960;2023-04-21T02:09:32;37.18;31.98;43.41;;
68279;Laerm;55108;51.790;10.960;2023-04-21T02:11:57;37.53;30.57;44.89;;
68279;Laerm;55108;51.790;10.960;2023-04-21T02:14:23;38.52;30.84;45.41;;
68279;Laerm;55108;51.790;10.960;2023-04-21T02:16:48;33.75;29.52;39.84;;
68279;Laerm;55108;51.790;10.960;2023-04-21T02:19:13;60.43;35.03;79.40;;
68279;Laerm;55108;51.790;10.960;2023-04-21T02:21:38;63.38;32.24;79.08;;
68279;Laerm;55108;51.790;10.960;2023-04-21T02:24:04;44.03;30.47;65.00;;
68279;Laerm;55108;51.790;10.960;2023-04-21T02:26:29;55.44;32.81;72.65;;
68279;Laerm;55108;51.790;10.960;2023-04-21T02:28:54;54.73;31.82;72.11;;
68279;Laerm;55108;51.790;10.960;2023-04-21T02:31:19;38.10;32.68;49.40;;
68279;Laerm;55108;51.790;10.960;2023-04-21T02:33:44;61.64;33.41;81.55;;
68279;Laerm;55108;51.790;10.960;2023-04-21T02:36:10;57.35;30.79;74.46;;
68279;Laerm;55108;51.790;10.960;2023-04-21T02:38:35;37.20;32.38;45.58;;
68279;Laerm;55108;51.790;10.960;2023-04-21T02:41:00;60.70;34.46;77.74;;
68279;Laerm;55108;51.790;10.960;2023-04-21T02:43:25;57.56;31.39;77.10;;
68279;Laerm;55108;51.790;10.960;2023-04-21T02:45:51;58.26;33.56;76.21;;
68279;Laerm;55108;51.790;10.960;2023-04-21T02:48:16;38.02;31.70;49.10;;
68279;Laerm;55108;51.790;10.960;2023-04-21T02:50:46;40.25;30.92;60.32;;
68279;Laerm;55108;51.790;10.960;2023-04-21T02:53:11;54.65;29.51;71.85;;
68279;Laerm;55108;51.790;10.960;2023-04-21T02:55:37;63.50;36.84;80.12;;
68279;Laerm;55108;51.790;10.960;2023-04-21T02:58:02;63.39;37.92;80.95;;
68279;Laerm;55108;51.790;10.960;2023-04-21T03:00:27;40.97;33.82;53.72;;
68279;Laerm;55108;51.790;10.960;2023-04-21T03:02:52;62.51;32.69;81.24;;
68279;Laerm;55108;51.790;10.960;2023-04-21T03:05:17;62.78;35.69;78.02;;
68279;Laerm;55108;51.790;10.960;2023-04-21T03:07:43;64.07;38.09;78.18;;
68279;Laerm;55108;51.790;10.960;2023-04-21T03:10:08;59.85;37.97;71.59;;
68279;Laerm;55108;51.790;10.960;2023-04-21T03:12:33;67.71;41.05;83.13;;
68279;Laerm;55108;51.790;10.960;2023-04-21T03:14:58;60.35;40.64;76.00;;
68279;Laerm;55108;51.790;10.960;2023-04-21T03:17:24;65.43;40.32;82.64;;
68279;Laerm;55108;51.790;10.960;2023-04-21T03:19:49;64.87;40.16;82.65;;
68279;Laerm;55108;51.790;10.960;2023-04-21T03:22:14;63.95;39.78;76.98;;
68279;Laerm;55108;51.790;10.960;2023-04-21T03:24:39;64.68;40.45;77.74;;
68279;Laerm;55108;51.790;10.960;2023-04-21T03:27:05;65.41;41.94;78.83;;
68279;Laerm;55108;51.790;10.960;2023-04-21T03:29:30;64.86;42.16;82.69;;
68279;Laerm;55108;51.790;10.960;2023-04-21T03:31:55;57.12;40.01;71.82;;
68279;Laerm;55108;51.790;10.960;2023-04-21T03:34:20;65.28;41.51;77.63;;
68279;Laerm;55108;51.790;10.960;2023-04-21T03:36:45;64.30;41.61;79.06;;
68279;Laerm;55108;51.790;10.960;2023-04-21T03:39:10;67.54;43.50;81.72;;
68279;Laerm;55108;51.790;10.960;2023-04-21T03:41:35;65.18;42.12;78.26;;
68279;Laerm;55108;51.790;10.960;2023-04-21T03:44:01;62.41;40.68;77.90;;
68279;Laerm;55108;51.790;10.960;2023-04-21T03:46:26;66.31;41.04;82.22;;
68279;Laerm;55108;51.790;10.960;2023-04-21T03:48:51;65.99;43.53;79.08;;
68279;Laerm;55108;51.790;10.960;2023-04-21T03:51:16;64.09;41.95;74.96;;
68279;Laerm;55108;51.790;10.960;2023-04-21T03:53:42;59.51;39.64;73.99;;
68279;Laerm;55108;51.790;10.960;2023-04-21T03:56:07;62.90;40.32;75.87;;
68279;Laerm;55108;51.790;10.960;2023-04-21T03:58:32;66.39;43.81;81.36;;
68279;Laerm;55108;51.790;10.960;2023-04-21T04:00:57;67.65;41.97;86.03;;
68279;Laerm;55108;51.790;10.960;2023-04-21T04:03:23;65.56;42.30;80.71;;
68279;Laerm;55108;51.790;10.960;2023-04-21T04:05:48;69.34;45.42;82.95;;
68279;Laerm;55108;51.790;10.960;2023-04-21T04:08:13;66.17;42.40;82.18;;
68279;Laerm;55108;51.790;10.960;2023-04-21T04:10:38;65.84;43.45;77.49;;
68279;Laerm;55108;51.790;10.960;2023-04-21T04:13:03;62.70;42.67;75.39;;
68279;Laerm;55108;51.790;10.960;2023-04-21T04:15:28;66.03;42.55;77.75;;
68279;Laerm;55108;51.790;10.960;2023-04-21T04:17:53;68.36;42.64;85.82;;
68279;Laerm;55108;51.790;10.960;2023-04-21T04:20:19;66.06;43.90;79.14;;
68279;Laerm;55108;51.790;10.960;2023-04-21T04:22:44;59.42;40.19;74.64;;
68279;Laerm;55108;51.790;10.960;2023-04-21T04:25:09;67.95;45.51;78.85;;
68279;Laerm;55108;51.790;10.960;2023-04-21T04:27:34;65.93;44.45;80.41;;
68279;Laerm;55108;51.790;10.960;2023-04-21T04:30:00;65.46;43.87;80.55;;
68279;Laerm;55108;51.790;10.960;2023-04-21T04:32:25;67.11;43.29;78.32;;
68279;Laerm;55108;51.790;10.960;2023-04-21T04:34:53;66.07;43.45;76.64;;
68279;Laerm;55108;51.790;10.960;2023-04-21T04:37:19;66.04;47.40;77.35;;
68279;Laerm;55108;51.790;10.960;2023-04-21T04:39:45;68.23;46.66;80.82;;
68279;Laerm;55108;51.790;10.960;2023-04-21T04:42:10;67.81;44.63;83.28;;
68279;Laerm;55108;51.790;10.960;2023-04-21T04:44:36;67.45;47.49;77.81;;
68279;Laerm;55108;51.790;10.960;2023-04-21T04:47:01;65.95;43.29;81.05;;
68279;Laerm;55108;51.790;10.960;2023-04-21T04:49:26;71.71;46.97;90.42;;
68279;Laerm;55108;51.790;10.960;2023-04-21T04:51:52;68.99;44.63;85.46;;
68279;Laerm;55108;51.790;10.960;2023-04-21T04:54:17;71.10;47.41;84.32;;
68279;Laerm;55108;51.790;10.960;2023-04-21T04:56:42;68.84;49.16;82.42;;
68279;Laerm;55108;51.790;10.960;2023-04-21T04:59:07;68.04;53.09;79.78;;
68279;Laerm;55108;51.790;10.960;2023-04-21T05:01:32;65.46;49.22;75.66;;
68279;Laerm;55108;51.790;10.960;2023-04-21T05:03:57;64.76;43.81;76.86;;
68279;Laerm;55108;51.790;10.960;2023-04-21T05:06:23;68.49;46.12;80.04;;
68279;Laerm;55108;51.790;10.960;2023-04-21T05:08:48;68.91;46.91;78.69;;
68279;Laerm;55108;51.790;10.960;2023-04-21T05:11:13;66.95;46.49;80.83;;
68279;Laerm;55108;51.790;10.960;2023-04-21T05:13:38;65.55;43.42;76.05;;
68279;Laerm;55108;51.790;10.960;2023-04-21T05:16:03;67.79;47.82;78.20;;
68279;Laerm;55108;51.790;10.960;2023-04-21T05:18:28;68.20;46.21;79.56;;
68279;Laerm;55108;51.790;10.960;2023-04-21T05:20:54;70.19;46.54;82.93;;
68279;Laerm;55108;51.790;10.960;2023-04-21T05:23:19;67.50;48.41;78.46;;
68279;Laerm;55108;51.790;10.960;2023-04-21T05:25:44;69.26;45.79;84.10;;
68279;Laerm;55108;51.790;10.960;2023-04-21T05:28:10;67.01;44.63;79.54;;
68279;Laerm;55108;51.790;10.960;2023-04-21T05:30:35;67.37;53.39;78.42;;
68279;Laerm;55108;51.790;10.960;2023-04-21T05:33:00;67.56;49.15;76.33;;
68279;Laerm;55108;51.790;10.960;2023-04-21T05:35:26;65.45;48.01;76.99;;
68279;Laerm;55108;51.790;10.960;2023-04-21T05:37:51;67.86;51.08;80.58;;
68279;Laerm;55108;51.790;10.960;2023-04-21T05:40:16;66.84;46.35;77.71;;
68279;Laerm;55108;51.790;10.960;2023-04-21T05:42:41;68.18;47.55;77.51;;
68279;Laerm;55108;51.790;10.960;2023-04-21T05:45:06;66.98;49.17;77.24;;
68279;Laerm;55108;51.790;10.960;2023-04-21T05:47:31;67.67;48.31;79.87;;
68279;Laerm;55108;51.790;10.960;2023-04-21T05:49:56;68.97;49.30;84.94;;
68279;Laerm;55108;51.790;10.960;2023-04-21T05:52:22;67.29;45.28;82.04;;
68279;Laerm;55108;51.790;10.960;2023-04-21T05:54:47;67.72;48.88;81.79;;
68279;Laerm;55108;51.790;10.960;2023-04-21T05:57:12;70.28;47.11;80.46;;
68279;Laerm;55108;51.790;10.960;2023-04-21T05:59:37;68.91;47.37;84.28;;
68279;Laerm;55108;51.790;10.960;2023-04-21T06:02:02;65.89;44.54;77.47;;
68279;Laerm;55108;51.790;10.960;2023-04-21T06:04:27;69.68;46.50;85.75;;
68279;Laerm;55108;51.790;10.960;2023-04-21T06:06:53;67.18;44.82;78.57;;
68279;Laerm;55108;51.790;10.960;2023-04-21T06:09:18;67.57;47.71;83.58;;
68279;Laerm;55108;51.790;10.960;2023-04-21T06:11:43;65.40;43.37;78.01;;
68279;Laerm;55108;51.790;10.960;2023-04-21T06:14:08;67.78;47.82;83.61;;
68279;Laerm;55108;51.790;10.960;2023-04-21T06:16:33;68.27;47.91;81.72;;
68279;Laerm;55108;51.790;10.960;2023-04-21T06:18:59;68.46;49.05;81.76;;
68279;Laerm;55108;51.790;10.960;2023-04-21T06:21:24;66.45;41.43;77.92;;
68279;Laerm;55108;51.790;10.960;2023-04-21T06:23:49;66.34;42.37;82.57;;
68279;Laerm;55108;51.790;10.960;2023-04-21T06:26:14;66.97;42.54;82.01;;
68279;Laerm;55108;51.790;10.960;2023-04-21T06:28:39;69.82;49.84;87.06;;
68279;Laerm;55108;51.790;10.960;2023-04-21T06:31:04;67.63;49.87;79.69;;
68279;Laerm;55108;51.790;10.960;2023-04-21T06:33:30;66.06;41.17;78.25;;
68279;Laerm;55108;51.790;10.960;2023-04-21T06:35:56;66.34;44.24;77.68;;
68279;Laerm;55108;51.790;10.960;2023-04-21T06:38:21;67.44;47.17;80.12;;
68279;Laerm;55108;51.790;10.960;2023-04-21T06:40:46;68.43;47.53;81.76;;
68279;Laerm;55108;51.790;10.960;2023-04-21T06:43:11;67.09;40.65;79.03;;
68279;Laerm;55108;51.790;10.960;2023-04-21T06:45:37;66.06;42.19;76.49;;
68279;Laerm;55108;51.790;10.960;2023-04-21T06:48:02;66.82;48.22;78.99;;
68279;Laerm;55108;51.790;10.960;2023-04-21T06:50:27;67.78;43.06;79.99;;
68279;Laerm;55108;51.790;10.960;2023-04-21T06:52:52;67.13;48.39;79.77;;
68279;Laerm;55108;51.790;10.960;2023-04-21T06:55:17;68.42;44.18;79.66;;
68279;Laerm;55108;51.790;10.960;2023-04-21T06:57:42;70.78;49.20;81.68;;
68279;Laerm;55108;51.790;10.960;2023-04-21T07:00:08;67.43;47.31;80.72;;
68279;Laerm;55108;51.790;10.960;2023-04-21T07:02:33;67.77;45.83;79.46;;
68279;Laerm;55108;51.790;10.960;2023-04-21T07:04:58;68.09;47.18;79.59;;
68279;Laerm;55108;51.790;10.960;2023-04-21T07:07:23;66.58;41.30;76.46;;
68279;Laerm;55108;51.790;10.960;2023-04-21T07:09:49;69.60;49.67;82.20;;
68279;Laerm;55108;51.790;10.960;2023-04-21T07:12:14;68.38;50.74;79.38;;
68279;Laerm;55108;51.790;10.960;2023-04-21T07:14:39;67.18;45.01;85.91;;
68279;Laerm;55108;51.790;10.960;2023-04-21T07:17:05;68.67;44.30;83.87;;
68279;Laerm;55108;51.790;10.960;2023-04-21T07:19:30;67.82;44.95;77.65;;
68279;Laerm;55108;51.790;10.960;2023-04-21T07:21:55;67.71;45.23;79.10;;
68279;Laerm;55108;51.790;10.960;2023-04-21T07:24:22;66.96;47.27;78.69;;
68279;Laerm;55108;51.790;10.960;2023-04-21T07:26:47;68.42;48.12;81.93;;
68279;Laerm;55108;51.790;10.960;2023-04-21T07:29:12;68.83;45.59;81.55;;
68279;Laerm;55108;51.790;10.960;2023-04-21T07:31:37;66.08;46.61;80.43;;
68279;Laerm;55108;51.790;10.960;2023-04-21T07:34:02;66.93;44.64;78.59;;
68279;Laerm;55108;51.790;10.960;2023-04-21T07:36:27;68.24;46.52;76.73;;
68279;Laerm;55108;51.790;10.960;2023-04-21T07:38:52;66.02;44.91;75.29;;
68279;Laerm;55108;51.790;10.960;2023-04-21T07:41:18;68.81;47.56;80.51;;
68279;Laerm;55108;51.790;10.960;2023-04-21T07:43:43;68.30;51.92;83.64;;
68279;Laerm;55108;51.790;10.960;2023-04-21T07:46:09;72.18;50.09;95.37;;
68279;Laerm;55108;51.790;10.960;2023-04-21T07:48:34;68.60;49.55;84.28;;
68279;Laerm;55108;51.790;10.960;2023-04-21T07:50:59;68.43;49.91;77.84;;
68279;Laerm;55108;51.790;10.960;2023-04-21T07:53:28;68.16;54.87;81.39;;
68279;Laerm;55108;51.790;10.960;2023-04-21T07:55:53;67.82;44.88;79.20;;
68279;Laerm;55108;51.790;10.960;2023-04-21T07:58:18;68.37;52.06;78.96;;
68279;Laerm;55108;51.790;10.960;2023-04-21T08:00:44;69.17;49.67;82.88;;
68279;Laerm;55108;51.790;10.960;2023-04-21T08:03:09;65.21;48.31;75.86;;
68279;Laerm;55108;51.790;10.960;2023-04-21T08:05:34;66.86;48.11;76.61;;
68279;Laerm;55108;51.790;10.960;2023-04-21T08:07:59;66.70;50.54;77.18;;
68279;Laerm;55108;51.790;10.960;2023-04-21T08:10:24;66.14;48.46;77.07;;
68279;Laerm;55108;51.790;10.960;2023-04-21T08:12:50;68.14;48.54;80.88;;
68279;Laerm;55108;51.790;10.960;2023-04-21T08:15:15;68.42;49.37;82.13;;
68279;Laerm;55108;51.790;10.960;2023-04-21T08:17:40;68.65;50.05;81.87;;
68279;Laerm;55108;51.790;10.960;2023-04-21T08:20:05;68.03;50.59;76.28;;
68279;Laerm;55108;51.790;10.960;2023-04-21T08:22:31;67.66;51.57;79.93;;
68279;Laerm;55108;51.790;10.960;2023-04-21T08:24:57;69.58;53.20;81.35;;
68279;Laerm;55108;51.790;10.960;2023-04-21T08:27:22;68.75;46.14;85.23;;
68279;Laerm;55108;51.790;10.960;2023-04-21T08:29:48;67.60;50.44;80.67;;
68279;Laerm;55108;51.790;10.960;2023-04-21T08:32:13;68.79;51.37;83.82;;
68279;Laerm;55108;51.790;10.960;2023-04-21T08:34:38;69.19;52.49;82.34;;
68279;Laerm;55108;51.790;10.960;2023-04-21T08:37:03;68.66;50.97;76.80;;
68279;Laerm;55108;51.790;10.960;2023-04-21T08:39:28;66.72;49.35;76.65;;
68279;Laerm;55108;51.790;10.960;2023-04-21T08:41:54;69.57;51.49;83.36;;
68279;Laerm;55108;51.790;10.960;2023-04-21T08:44:19;68.47;48.86;78.42;;
68279;Laerm;55108;51.790;10.960;2023-04-21T08:46:44;67.54;53.16;76.72;;
68279;Laerm;55108;51.790;10.960;2023-04-21T08:49:11;69.06;48.94;82.84;;
68279;Laerm;55108;51.790;10.960;2023-04-21T08:51:36;66.89;44.20;84.31;;
68279;Laerm;55108;51.790;10.960;2023-04-21T08:54:01;69.12;45.18;83.92;;
68279;Laerm;55108;51.790;10.960;2023-04-21T08:56:27;68.58;43.69;80.63;;
68279;Laerm;55108;51.790;10.960;2023-04-21T08:58:52;67.99;45.49;78.53;;
68279;Laerm;55108;51.790;10.960;2023-04-21T09:01:17;69.01;51.48;78.84;;
68279;Laerm;55108;51.790;10.960;2023-04-21T09:03:42;65.58;48.94;77.17;;
68279;Laerm;55108;51.790;10.960;2023-04-21T09:06:08;69.49;51.83;80.66;;
68279;Laerm;55108;51.790;10.960;2023-04-21T09:08:35;64.61;42.97;79.13;;
68279;Laerm;55108;51.790;10.960;2023-04-21T09:11:01;68.82;49.34;80.25;;
68279;Laerm;55108;51.790;10.960;2023-04-21T09:13:33;68.09;51.65;81.58;;
68279;Laerm;55108;51.790;10.960;2023-04-21T09:15:59;69.21;47.76;86.07;;
68279;Laerm;55108;51.790;10.960;2023-04-21T09:18:25;68.19;48.37;80.66;;
68279;Laerm;55108;51.790;10.960;2023-04-21T09:20:53;68.03;51.19;79.56;;
68279;Laerm;55108;51.790;10.960;2023-04-21T09:23:28;66.70;48.27;78.20;;
68279;Laerm;55108;51.790;10.960;2023-04-21T09:25:53;68.05;46.52;79.73;;
68279;Laerm;55108;51.790;10.960;2023-04-21T09:28:18;68.78;48.14;81.12;;
68279;Laerm;55108;51.790;10.960;2023-04-21T09:30:43;68.88;49.39;81.22;;
68279;Laerm;55108;51.790;10.960;2023-04-21T09:33:15;67.23;45.70;78.45;;
68279;Laerm;55108;51.790;10.960;2023-04-21T09:35:41;66.80;46.79;78.37;;
68279;Laerm;55108;51.790;10.960;2023-04-21T09:38:10;68.42;52.93;77.83;;
68279;Laerm;55108;51.790;10.960;2023-04-21T09:40:36;67.23;47.02;78.20;;
68279;Laerm;55108;51.790;10.960;2023-04-21T09:43:01;65.55;44.28;75.32;;
68279;Laerm;55108;51.790;10.960;2023-04-21T09:45:27;68.92;44.58;85.65;;
68279;Laerm;55108;51.790;10.960;2023-04-21T09:47:54;69.53;48.60;86.76;;
68279;Laerm;55108;51.790;10.960;2023-04-21T09:50:20;68.16;49.65;78.13;;
68279;Laerm;55108;51.790;10.960;2023-04-21T09:52:46;66.31;49.81;74.10;;
68279;Laerm;55108;51.790;10.960;2023-04-21T09:55:14;71.67;54.44;95.16;;
68279;Laerm;55108;51.790;10.960;2023-04-21T09:57:40;68.18;47.74;81.34;;
68279;Laerm;55108;51.790;10.960;2023-04-21T10:00:06;68.89;54.94;82.91;;
68279;Laerm;55108;51.790;10.960;2023-04-21T10:02:36;66.68;51.29;80.83;;
68279;Laerm;55108;51.790;10.960;2023-04-21T10:05:03;68.18;48.00;83.14;;
68279;Laerm;55108;51.790;10.960;2023-04-21T10:07:28;69.13;51.01;83.71;;
68279;Laerm;55108;51.790;10.960;2023-04-21T10:09:55;65.71;47.88;76.22;;
68279;Laerm;55108;51.790;10.960;2023-04-21T10:12:20;69.38;49.98;82.27;;
68279;Laerm;55108;51.790;10.960;2023-04-21T10:14:49;67.95;44.48;80.16;;
68279;Laerm;55108;51.790;10.960;2023-04-21T10:17:15;72.10;53.56;80.65;;
68279;Laerm;55108;51.790;10.960;2023-04-21T10:19:50;74.18;64.85;81.86;;
68279;Laerm;55108;51.790;10.960;2023-04-21T10:22:24;73.36;64.79;80.00;;
68279;Laerm;55108;51.790;10.960;2023-04-21T10:24:50;71.64;56.01;79.15;;
68279;Laerm;55108;51.790;10.960;2023-04-21T10:27:29;68.43;56.30;82.68;;
68279;Laerm;55108;51.790;10.960;2023-04-21T10:29:55;69.92;57.75;81.96;;
68279;Laerm;55108;51.790;10.960;2023-04-21T10:32:38;68.60;54.37;76.89;;
68279;Laerm;55108;51.790;10.960;2023-04-21T10:35:07;68.05;48.30;78.67;;
68279;Laerm;55108;51.790;10.960;2023-04-21T10:37:32;67.90;53.20;76.96;;
68279;Laerm;55108;51.790;10.960;2023-04-21T10:39:57;68.57;52.45;79.14;;
68279;Laerm;55108;51.790;10.960;2023-04-21T10:42:27;67.34;56.70;78.57;;
68279;Laerm;55108;51.790;10.960;2023-04-21T10:47:34;66.22;48.97;78.33;;
68279;Laerm;55108;51.790;10.960;2023-04-21T10:50:09;69.65;49.98;81.78;;
68279;Laerm;55108;51.790;10.960;2023-04-21T10:52:35;68.85;51.74;77.80;;
68279;Laerm;55108;51.790;10.960;2023-04-21T10:57:25;69.06;52.04;86.91;;
68279;Laerm;55108;51.790;10.960;2023-04-21T10:59:55;65.86;52.44;75.66;;
68279;Laerm;55108;51.790;10.960;2023-04-21T11:02:20;68.33;51.86;78.68;;
68279;Laerm;55108;51.790;10.960;2023-04-21T11:04:49;68.08;53.52;77.70;;
68279;Laerm;55108;51.790;10.960;2023-04-21T11:07:15;68.62;54.93;82.05;;
68279;Laerm;55108;51.790;10.960;2023-04-21T11:09:41;63.59;50.34;74.38;;
68279;Laerm;55108;51.790;10.960;2023-04-21T11:12:07;67.96;51.56;82.12;;
68279;Laerm;55108;51.790;10.960;2023-04-21T11:14:33;68.73;52.42;78.11;;
68279;Laerm;55108;51.790;10.960;2023-04-21T11:16:59;68.41;50.68;84.10;;
68279;Laerm;55108;51.790;10.960;2023-04-21T11:19:24;67.06;50.81;79.23;;
68279;Laerm;55108;51.790;10.960;2023-04-21T11:21:50;67.32;48.80;79.47;;
68279;Laerm;55108;51.790;10.960;2023-04-21T11:24:17;68.59;49.66;80.14;;
68279;Laerm;55108;51.790;10.960;2023-04-21T11:26:42;66.75;47.99;76.61;;
68279;Laerm;55108;51.790;10.960;2023-04-21T11:29:08;68.19;50.71;77.73;;
68279;Laerm;55108;51.790;10.960;2023-04-21T11:31:34;67.24;45.72;77.06;;
68279;Laerm;55108;51.790;10.960;2023-04-21T11:34:00;68.52;48.24;88.48;;
68279;Laerm;55108;51.790;10.960;2023-04-21T11:36:26;69.30;50.18;85.53;;
68279;Laerm;55108;51.790;10.960;2023-04-21T11:38:51;67.36;49.22;79.11;;
68279;Laerm;55108;51.790;10.960;2023-04-21T11:41:20;68.19;45.18;84.04;;
68279;Laerm;55108;51.790;10.960;2023-04-21T11:43:46;66.05;46.85;76.89;;
68279;Laerm;55108;51.790;10.960;2023-04-21T11:46:13;65.87;47.78;78.24;;
68279;Laerm;55108;51.790;10.960;2023-04-21T11:48:41;68.47;52.66;82.89;;
68279;Laerm;55108;51.790;10.960;2023-04-21T11:51:12;67.33;47.69;77.01;;
68279;Laerm;55108;51.790;10.960;2023-04-21T11:53:38;68.11;47.49;78.95;;
68279;Laerm;55108;51.790;10.960;2023-04-21T11:56:03;68.25;49.18;80.96;;
68279;Laerm;55108;51.790;10.960;2023-04-21T11:58:29;67.42;48.75;77.45;;
68279;Laerm;55108;51.790;10.960;2023-04-21T12:00:55;68.35;50.90;78.80;;
68279;Laerm;55108;51.790;10.960;2023-04-21T12:03:20;69.28;47.44;83.70;;
68279;Laerm;55108;51.790;10.960;2023-04-21T12:05:45;68.22;50.17;77.89;;
68279;Laerm;55108;51.790;10.960;2023-04-21T12:08:14;68.37;47.71;80.92;;
68279;Laerm;55108;51.790;10.960;2023-04-21T12:10:43;68.05;46.95;79.33;;
68279;Laerm;55108;51.790;10.960;2023-04-21T12:13:08;67.80;49.01;78.66;;
68279;Laerm;55108;51.790;10.960;2023-04-21T12:15:33;69.98;51.77;81.76;;
68279;Laerm;55108;51.790;10.960;2023-04-21T12:17:58;68.44;48.93;80.53;;
68279;Laerm;55108;51.790;10.960;2023-04-21T12:20:24;68.12;47.52;80.45;;
68279;Laerm;55108;51.790;10.960;2023-04-21T12:22:49;67.03;45.98;78.00;;
68279;Laerm;55108;51.790;10.960;2023-04-21T12:25:14;65.72;47.05;81.53;;
68279;Laerm;55108;51.790;10.960;2023-04-21T12:27:52;67.73;49.58;79.84;;
68279;Laerm;55108;51.790;10.960;2023-04-21T12:30:18;66.85;46.91;78.03;;
68279;Laerm;55108;51.790;10.960;2023-04-21T12:32:43;67.35;49.24;78.21;;
68279;Laerm;55108;51.790;10.960;2023-04-21T12:35:08;70.08;50.52;81.72;;
68279;Laerm;55108;51.790;10.960;2023-04-21T12:37:34;65.98;48.13;76.45;;
68279;Laerm;55108;51.790;10.960;2023-04-21T12:39:59;66.18;46.07;81.87;;
68279;Laerm;55108;51.790;10.960;2023-04-21T12:42:24;66.40;50.40;81.90;;
68279;Laerm;55108;51.790;10.960;2023-04-21T12:44:49;67.94;48.00;78.03;;
68279;Laerm;55108;51.790;10.960;2023-04-21T12:47:14;69.46;50.74;80.23;;
68279;Laerm;55108;51.790;10.960;2023-04-21T12:49:40;68.46;52.63;79.29;;
68279;Laerm;55108;51.790;10.960;2023-04-21T12:52:05;67.16;52.57;77.82;;
68279;Laerm;55108;51.790;10.960;2023-04-21T12:54:30;66.32;49.93;74.65;;
68279;Laerm;55108;51.790;10.960;2023-04-21T12:56:55;65.86;49.07;77.06;;
68279;Laerm;55108;51.790;10.960;2023-04-21T12:59:22;67.75;51.42;77.80;;
68279;Laerm;55108;51.790;10.960;2023-04-21T13:01:47;68.53;53.13;79.70;;
68279;Laerm;55108;51.790;10.960;2023-04-21T13:04:12;68.06;48.22;77.92;;
68279;Laerm;55108;51.790;10.960;2023-04-21T13:06:37;69.84;51.00;80.34;;
68279;Laerm;55108;51.790;10.960;2023-04-21T13:09:02;67.60;48.28;78.87;;
68279;Laerm;55108;51.790;10.960;2023-04-21T13:11:28;67.47;50.30;80.33;;
68279;Laerm;55108;51.790;10.960;2023-04-21T13:13:53;69.37;49.03;81.00;;
68279;Laerm;55108;51.790;10.960;2023-04-21T13:16:18;74.18;49.27;98.53;;
68279;Laerm;55108;51.790;10.960;2023-04-21T13:18:44;68.10;48.95;79.19;;
68279;Laerm;55108;51.790;10.960;2023-04-21T13:21:09;69.84;51.37;90.83;;
68279;Laerm;55108;51.790;10.960;2023-04-21T13:23:35;65.19;45.93;74.91;;
68279;Laerm;55108;51.790;10.960;2023-04-21T13:26:00;68.00;50.42;76.68;;
68279;Laerm;55108;51.790;10.960;2023-04-21T13:28:25;68.50;51.50;79.04;;